Portada
METAR-TAF:

METAR-TAF

Aeroports :

Laoag, Filipines

latitud: 18-11N, longitud: 120-32E, altitud: 4 m

Observació

L'informe es va fer fa 2 hores i 9 minuts, a les 12:00 UTC
Vent 3 kt del Sud/Sud-Est, variant entre Est/Nord-Est i Sud/Sud-Oest
Temperatura 26°C
Humitat 79%
Pressió 1013 hPa
Visibilitat 10 km o més
Escasses núvols a una alçada de 1800 ft
Núvols disperses a una alçada de 29000 ft

METAR: RPLI 261200Z 15003KT 070V200 9999 FEW018 SCT290 26/22 Q1013 NOSIG RMK A2991

Hora: 22:09 (14:09 UTC)

Pronòstic

L'informe es va fer fa 3 hores i 9 minuts, a les 11:00 UTC
Pronòstic vàlid del 26 a les 12 UTC al 27 a les 12 UTC
Vent 6 kt del Est
Visibilitat 10 km o més
Escasses núvols a una alçada de 1800 ft
Temporalment
l' 26 a les 12 UTC al 26 a les 18 UTC
Vent 4 kt del Est/Nord-Est

TAF: RPLI 261100Z 2612/2712 10006KT 9999 FEW018 TEMPO 2612/2618 07004KT

Observacions i pronòstics meteorològics de més de 4000 aeroports (METAR i TAF).

Les estacions disponibles són els punts grocs i vermells al mapa.

Posi el ratolí al punt desitjat per veure el nom de l'estació.

Feu clic per veure les observacions i els pronòstics meteorològics.

Per canviar el mapa: feu clic els botons verds amb una creu de color negre per apropar; al botó verd amb un guió per allunyar la imatge; o en les fletxes verdes per a mapes adjacents.


METAR-TAF: